sensor_id;sensor_type;location;lat;lon;timestamp;P1;durP1;ratioP1;P2;durP2;ratioP2
18048;SDS011;9149;47.002;8.604;2022-10-16T00:02:12;1.95;;;1.10;;
18048;SDS011;9149;47.002;8.604;2022-10-16T00:04:41;1.30;;;1.05;;
18048;SDS011;9149;47.002;8.604;2022-10-16T00:07:08;0.85;;;0.70;;
18048;SDS011;9149;47.002;8.604;2022-10-16T00:09:36;2.35;;;0.85;;
18048;SDS011;9149;47.002;8.604;2022-10-16T00:12:04;1.55;;;0.90;;
18048;SDS011;9149;47.002;8.604;2022-10-16T00:14:33;5.97;;;1.08;;
18048;SDS011;9149;47.002;8.604;2022-10-16T00:17:02;3.28;;;1.00;;
18048;SDS011;9149;47.002;8.604;2022-10-16T00:19:29;0.93;;;0.80;;
18048;SDS011;9149;47.002;8.604;2022-10-16T00:21:57;2.05;;;1.20;;
18048;SDS011;9149;47.002;8.604;2022-10-16T00:24:36;7.93;;;0.70;;
18048;SDS011;9149;47.002;8.604;2022-10-16T00:27:04;1.70;;;1.00;;
18048;SDS011;9149;47.002;8.604;2022-10-16T00:29:32;0.80;;;0.80;;
18048;SDS011;9149;47.002;8.604;2022-10-16T00:32:01;0.77;;;0.77;;
18048;SDS011;9149;47.002;8.604;2022-10-16T00:34:29;4.00;;;0.85;;
18048;SDS011;9149;47.002;8.604;2022-10-16T00:36:57;1.17;;;1.00;;
18048;SDS011;9149;47.002;8.604;2022-10-16T00:39:25;3.05;;;1.00;;
18048;SDS011;9149;47.002;8.604;2022-10-16T00:41:53;9.70;;;1.05;;
18048;SDS011;9149;47.002;8.604;2022-10-16T00:46:58;1.70;;;0.90;;
18048;SDS011;9149;47.002;8.604;2022-10-16T00:49:27;3.47;;;1.10;;
18048;SDS011;9149;47.002;8.604;2022-10-16T00:51:55;3.40;;;0.82;;
18048;SDS011;9149;47.002;8.604;2022-10-16T00:54:24;1.00;;;0.90;;
18048;SDS011;9149;47.002;8.604;2022-10-16T00:56:53;1.33;;;0.93;;
18048;SDS011;9149;47.002;8.604;2022-10-16T00:59:23;0.90;;;0.80;;
18048;SDS011;9149;47.002;8.604;2022-10-16T01:01:52;1.10;;;0.70;;
18048;SDS011;9149;47.002;8.604;2022-10-16T01:04:20;0.82;;;0.75;;
18048;SDS011;9149;47.002;8.604;2022-10-16T01:06:51;2.17;;;0.90;;
18048;SDS011;9149;47.002;8.604;2022-10-16T01:09:22;0.90;;;0.80;;
18048;SDS011;9149;47.002;8.604;2022-10-16T01:11:54;1.92;;;0.82;;
18048;SDS011;9149;47.002;8.604;2022-10-16T01:14:26;1.58;;;1.10;;
18048;SDS011;9149;47.002;8.604;2022-10-16T01:16:57;0.95;;;0.75;;
18048;SDS011;9149;47.002;8.604;2022-10-16T01:19:32;2.95;;;1.00;;
18048;SDS011;9149;47.002;8.604;2022-10-16T01:22:05;1.00;;;0.90;;
18048;SDS011;9149;47.002;8.604;2022-10-16T01:24:37;1.92;;;0.90;;
18048;SDS011;9149;47.002;8.604;2022-10-16T01:27:09;0.80;;;0.80;;
18048;SDS011;9149;47.002;8.604;2022-10-16T01:29:39;0.95;;;0.88;;
18048;SDS011;9149;47.002;8.604;2022-10-16T01:32:10;1.00;;;0.73;;
18048;SDS011;9149;47.002;8.604;2022-10-16T01:34:47;2.47;;;0.80;;
18048;SDS011;9149;47.002;8.604;2022-10-16T01:37:16;1.92;;;0.98;;
18048;SDS011;9149;47.002;8.604;2022-10-16T01:39:45;1.70;;;0.95;;
18048;SDS011;9149;47.002;8.604;2022-10-16T01:42:16;1.45;;;0.95;;
18048;SDS011;9149;47.002;8.604;2022-10-16T01:44:46;0.80;;;0.75;;
18048;SDS011;9149;47.002;8.604;2022-10-16T01:47:15;2.13;;;1.00;;
18048;SDS011;9149;47.002;8.604;2022-10-16T01:49:43;1.50;;;0.80;;
18048;SDS011;9149;47.002;8.604;2022-10-16T01:52:12;1.42;;;0.95;;
18048;SDS011;9149;47.002;8.604;2022-10-16T01:54:41;2.30;;;1.05;;
18048;SDS011;9149;47.002;8.604;2022-10-16T01:57:10;4.30;;;1.35;;
18048;SDS011;9149;47.002;8.604;2022-10-16T01:59:42;1.45;;;1.10;;
18048;SDS011;9149;47.002;8.604;2022-10-16T02:02:11;6.70;;;1.00;;
18048;SDS011;9149;47.002;8.604;2022-10-16T02:04:40;3.00;;;1.10;;
18048;SDS011;9149;47.002;8.604;2022-10-16T02:07:10;4.88;;;1.10;;
18048;SDS011;9149;47.002;8.604;2022-10-16T02:09:38;2.42;;;1.42;;
18048;SDS011;9149;47.002;8.604;2022-10-16T02:12:08;2.83;;;1.00;;
18048;SDS011;9149;47.002;8.604;2022-10-16T02:14:38;15.35;;;1.25;;
18048;SDS011;9149;47.002;8.604;2022-10-16T02:17:11;1.15;;;0.95;;
18048;SDS011;9149;47.002;8.604;2022-10-16T02:19:40;5.20;;;1.10;;
18048;SDS011;9149;47.002;8.604;2022-10-16T02:22:09;7.45;;;1.20;;
18048;SDS011;9149;47.002;8.604;2022-10-16T02:24:44;3.42;;;1.00;;
18048;SDS011;9149;47.002;8.604;2022-10-16T02:27:13;2.47;;;1.20;;
18048;SDS011;9149;47.002;8.604;2022-10-16T02:29:46;4.57;;;1.00;;
18048;SDS011;9149;47.002;8.604;2022-10-16T02:32:19;2.10;;;0.80;;
18048;SDS011;9149;47.002;8.604;2022-10-16T02:34:48;3.28;;;1.00;;
18048;SDS011;9149;47.002;8.604;2022-10-16T02:37:16;1.55;;;0.90;;
18048;SDS011;9149;47.002;8.604;2022-10-16T02:39:45;0.82;;;0.82;;
18048;SDS011;9149;47.002;8.604;2022-10-16T02:42:14;3.13;;;1.10;;
18048;SDS011;9149;47.002;8.604;2022-10-16T02:44:42;2.78;;;1.05;;
18048;SDS011;9149;47.002;8.604;2022-10-16T02:47:10;3.20;;;0.85;;
18048;SDS011;9149;47.002;8.604;2022-10-16T02:49:44;3.05;;;1.15;;
18048;SDS011;9149;47.002;8.604;2022-10-16T02:52:12;1.17;;;0.95;;
18048;SDS011;9149;47.002;8.604;2022-10-16T02:54:40;1.10;;;0.85;;
18048;SDS011;9149;47.002;8.604;2022-10-16T02:57:08;1.10;;;0.95;;
18048;SDS011;9149;47.002;8.604;2022-10-16T02:59:35;7.68;;;1.13;;
18048;SDS011;9149;47.002;8.604;2022-10-16T03:02:03;5.35;;;1.17;;
18048;SDS011;9149;47.002;8.604;2022-10-16T03:04:30;1.45;;;1.08;;
18048;SDS011;9149;47.002;8.604;2022-10-16T03:06:59;2.35;;;1.10;;
18048;SDS011;9149;47.002;8.604;2022-10-16T03:09:27;5.68;;;1.13;;
18048;SDS011;9149;47.002;8.604;2022-10-16T03:11:55;1.63;;;0.95;;
18048;SDS011;9149;47.002;8.604;2022-10-16T03:14:23;1.48;;;1.10;;
18048;SDS011;9149;47.002;8.604;2022-10-16T03:16:50;1.50;;;1.08;;
18048;SDS011;9149;47.002;8.604;2022-10-16T03:19:18;2.22;;;1.00;;
18048;SDS011;9149;47.002;8.604;2022-10-16T03:21:46;1.23;;;1.05;;
18048;SDS011;9149;47.002;8.604;2022-10-16T03:24:15;1.60;;;1.00;;
18048;SDS011;9149;47.002;8.604;2022-10-16T03:26:43;4.55;;;1.20;;
18048;SDS011;9149;47.002;8.604;2022-10-16T03:29:11;1.30;;;1.00;;
18048;SDS011;9149;47.002;8.604;2022-10-16T03:31:38;1.08;;;0.90;;
18048;SDS011;9149;47.002;8.604;2022-10-16T03:34:06;2.15;;;1.13;;
18048;SDS011;9149;47.002;8.604;2022-10-16T03:36:34;1.73;;;1.10;;
18048;SDS011;9149;47.002;8.604;2022-10-16T03:39:02;1.67;;;1.15;;
18048;SDS011;9149;47.002;8.604;2022-10-16T03:41:31;3.28;;;1.25;;
18048;SDS011;9149;47.002;8.604;2022-10-16T03:43:59;4.43;;;1.17;;
18048;SDS011;9149;47.002;8.604;2022-10-16T03:46:26;1.92;;;1.00;;
18048;SDS011;9149;47.002;8.604;2022-10-16T03:48:54;1.92;;;1.30;;
18048;SDS011;9149;47.002;8.604;2022-10-16T03:51:22;1.90;;;1.15;;
18048;SDS011;9149;47.002;8.604;2022-10-16T03:53:49;1.50;;;0.95;;
18048;SDS011;9149;47.002;8.604;2022-10-16T03:56:17;1.88;;;1.05;;
18048;SDS011;9149;47.002;8.604;2022-10-16T03:58:46;2.78;;;1.30;;
18048;SDS011;9149;47.002;8.604;2022-10-16T04:01:14;2.03;;;1.38;;
18048;SDS011;9149;47.002;8.604;2022-10-16T04:03:42;1.45;;;1.20;;
18048;SDS011;9149;47.002;8.604;2022-10-16T04:06:09;2.15;;;1.20;;
18048;SDS011;9149;47.002;8.604;2022-10-16T04:08:37;1.35;;;1.00;;
18048;SDS011;9149;47.002;8.604;2022-10-16T04:11:05;1.02;;;0.93;;
18048;SDS011;9149;47.002;8.604;2022-10-16T04:13:33;1.38;;;1.15;;
18048;SDS011;9149;47.002;8.604;2022-10-16T04:16:02;1.73;;;1.08;;
18048;SDS011;9149;47.002;8.604;2022-10-16T04:18:29;7.57;;;1.35;;
18048;SDS011;9149;47.002;8.604;2022-10-16T04:21:01;2.80;;;1.25;;
18048;SDS011;9149;47.002;8.604;2022-10-16T04:23:29;0.95;;;0.93;;
18048;SDS011;9149;47.002;8.604;2022-10-16T04:25:57;2.03;;;1.25;;
18048;SDS011;9149;47.002;8.604;2022-10-16T04:28:24;4.30;;;1.40;;
18048;SDS011;9149;47.002;8.604;2022-10-16T04:30:53;2.25;;;1.25;;
18048;SDS011;9149;47.002;8.604;2022-10-16T04:33:22;6.20;;;1.40;;
18048;SDS011;9149;47.002;8.604;2022-10-16T04:35:55;1.40;;;1.00;;
18048;SDS011;9149;47.002;8.604;2022-10-16T04:38:23;4.05;;;1.17;;
18048;SDS011;9149;47.002;8.604;2022-10-16T04:40:51;1.95;;;1.00;;
18048;SDS011;9149;47.002;8.604;2022-10-16T04:43:19;1.42;;;1.02;;
18048;SDS011;9149;47.002;8.604;2022-10-16T04:45:46;2.10;;;0.98;;
18048;SDS011;9149;47.002;8.604;2022-10-16T04:48:14;4.07;;;1.35;;
18048;SDS011;9149;47.002;8.604;2022-10-16T04:50:43;4.25;;;0.82;;
18048;SDS011;9149;47.002;8.604;2022-10-16T04:53:11;1.80;;;1.00;;
18048;SDS011;9149;47.002;8.604;2022-10-16T04:55:38;3.08;;;1.10;;
18048;SDS011;9149;47.002;8.604;2022-10-16T04:58:06;1.40;;;1.10;;
18048;SDS011;9149;47.002;8.604;2022-10-16T05:00:34;3.53;;;0.98;;
18048;SDS011;9149;47.002;8.604;2022-10-16T05:03:02;1.08;;;0.88;;
18048;SDS011;9149;47.002;8.604;2022-10-16T05:05:33;1.70;;;1.08;;
18048;SDS011;9149;47.002;8.604;2022-10-16T05:08:02;1.48;;;1.00;;
18048;SDS011;9149;47.002;8.604;2022-10-16T05:10:30;5.07;;;0.90;;
18048;SDS011;9149;47.002;8.604;2022-10-16T05:12:58;2.67;;;1.20;;
18048;SDS011;9149;47.002;8.604;2022-10-16T05:15:26;1.25;;;0.90;;
18048;SDS011;9149;47.002;8.604;2022-10-16T05:17:53;1.52;;;0.95;;
18048;SDS011;9149;47.002;8.604;2022-10-16T05:20:21;7.78;;;1.33;;
18048;SDS011;9149;47.002;8.604;2022-10-16T05:22:49;2.95;;;1.15;;
18048;SDS011;9149;47.002;8.604;2022-10-16T05:25:18;1.00;;;0.90;;
18048;SDS011;9149;47.002;8.604;2022-10-16T05:27:47;1.10;;;0.90;;
18048;SDS011;9149;47.002;8.604;2022-10-16T05:30:14;1.45;;;1.05;;
18048;SDS011;9149;47.002;8.604;2022-10-16T05:32:45;6.65;;;0.95;;
18048;SDS011;9149;47.002;8.604;2022-10-16T05:35:13;1.52;;;1.10;;
18048;SDS011;9149;47.002;8.604;2022-10-16T05:37:41;3.08;;;0.90;;
18048;SDS011;9149;47.002;8.604;2022-10-16T05:40:10;1.60;;;1.05;;
18048;SDS011;9149;47.002;8.604;2022-10-16T05:42:39;2.08;;;0.90;;
18048;SDS011;9149;47.002;8.604;2022-10-16T05:45:08;1.65;;;1.13;;
18048;SDS011;9149;47.002;8.604;2022-10-16T05:47:36;1.70;;;1.15;;
18048;SDS011;9149;47.002;8.604;2022-10-16T05:50:04;2.08;;;1.42;;
18048;SDS011;9149;47.002;8.604;2022-10-16T05:52:32;1.02;;;0.93;;
18048;SDS011;9149;47.002;8.604;2022-10-16T05:54:59;1.52;;;0.98;;
18048;SDS011;9149;47.002;8.604;2022-10-16T05:57:27;14.40;;;1.15;;
18048;SDS011;9149;47.002;8.604;2022-10-16T05:59:56;2.53;;;1.13;;
18048;SDS011;9149;47.002;8.604;2022-10-16T06:02:24;1.10;;;0.95;;
18048;SDS011;9149;47.002;8.604;2022-10-16T06:04:52;2.30;;;1.10;;
18048;SDS011;9149;47.002;8.604;2022-10-16T06:07:21;1.73;;;1.15;;
18048;SDS011;9149;47.002;8.604;2022-10-16T06:09:49;1.77;;;1.10;;
18048;SDS011;9149;47.002;8.604;2022-10-16T06:12:17;1.23;;;1.00;;
18048;SDS011;9149;47.002;8.604;2022-10-16T06:14:45;2.17;;;0.90;;
18048;SDS011;9149;47.002;8.604;2022-10-16T06:17:31;1.00;;;0.90;;
18048;SDS011;9149;47.002;8.604;2022-10-16T06:19:59;1.60;;;1.02;;
18048;SDS011;9149;47.002;8.604;2022-10-16T06:22:27;1.00;;;0.90;;
18048;SDS011;9149;47.002;8.604;2022-10-16T06:24:54;2.17;;;1.25;;
18048;SDS011;9149;47.002;8.604;2022-10-16T06:27:22;0.98;;;0.88;;
18048;SDS011;9149;47.002;8.604;2022-10-16T06:29:50;1.48;;;1.05;;
18048;SDS011;9149;47.002;8.604;2022-10-16T06:32:18;1.70;;;1.00;;
18048;SDS011;9149;47.002;8.604;2022-10-16T06:34:47;1.13;;;1.02;;
18048;SDS011;9149;47.002;8.604;2022-10-16T06:37:14;3.53;;;1.42;;
18048;SDS011;9149;47.002;8.604;2022-10-16T06:39:42;1.85;;;1.42;;
18048;SDS011;9149;47.002;8.604;2022-10-16T06:42:10;1.10;;;0.90;;
18048;SDS011;9149;47.002;8.604;2022-10-16T06:44:39;1.17;;;1.08;;
18048;SDS011;9149;47.002;8.604;2022-10-16T06:47:06;1.42;;;1.08;;
18048;SDS011;9149;47.002;8.604;2022-10-16T06:49:34;8.93;;;1.25;;
18048;SDS011;9149;47.002;8.604;2022-10-16T06:52:03;1.45;;;1.00;;
18048;SDS011;9149;47.002;8.604;2022-10-16T06:54:31;5.30;;;1.00;;
18048;SDS011;9149;47.002;8.604;2022-10-16T06:57:07;1.33;;;0.93;;
18048;SDS011;9149;47.002;8.604;2022-10-16T06:59:35;5.05;;;0.90;;
18048;SDS011;9149;47.002;8.604;2022-10-16T07:02:03;2.60;;;1.05;;
18048;SDS011;9149;47.002;8.604;2022-10-16T07:04:31;3.70;;;2.22;;
18048;SDS011;9149;47.002;8.604;2022-10-16T07:06:59;7.75;;;1.10;;
18048;SDS011;9149;47.002;8.604;2022-10-16T07:09:33;1.73;;;1.27;;
18048;SDS011;9149;47.002;8.604;2022-10-16T07:12:01;4.25;;;0.90;;
18048;SDS011;9149;47.002;8.604;2022-10-16T07:14:29;8.45;;;1.17;;
18048;SDS011;9149;47.002;8.604;2022-10-16T07:16:57;2.03;;;0.93;;
18048;SDS011;9149;47.002;8.604;2022-10-16T07:19:25;4.20;;;1.10;;
18048;SDS011;9149;47.002;8.604;2022-10-16T07:22:10;1.85;;;0.98;;
18048;SDS011;9149;47.002;8.604;2022-10-16T07:24:39;1.67;;;1.00;;
18048;SDS011;9149;47.002;8.604;2022-10-16T07:27:07;2.15;;;1.00;;
18048;SDS011;9149;47.002;8.604;2022-10-16T07:29:34;1.73;;;1.10;;
18048;SDS011;9149;47.002;8.604;2022-10-16T07:32:02;1.60;;;1.10;;
18048;SDS011;9149;47.002;8.604;2022-10-16T07:34:30;3.22;;;1.33;;
18048;SDS011;9149;47.002;8.604;2022-10-16T07:36:58;6.80;;;1.00;;
18048;SDS011;9149;47.002;8.604;2022-10-16T07:39:26;5.28;;;1.00;;
18048;SDS011;9149;47.002;8.604;2022-10-16T07:41:55;3.13;;;0.80;;
18048;SDS011;9149;47.002;8.604;2022-10-16T07:44:23;1.90;;;0.95;;
18048;SDS011;9149;47.002;8.604;2022-10-16T07:46:50;6.32;;;1.40;;
18048;SDS011;9149;47.002;8.604;2022-10-16T07:49:18;1.55;;;0.95;;
18048;SDS011;9149;47.002;8.604;2022-10-16T07:51:46;7.15;;;0.98;;
18048;SDS011;9149;47.002;8.604;2022-10-16T07:54:14;12.63;;;1.33;;
18048;SDS011;9149;47.002;8.604;2022-10-16T07:56:42;4.55;;;1.00;;
18048;SDS011;9149;47.002;8.604;2022-10-16T07:59:11;3.70;;;1.10;;
18048;SDS011;9149;47.002;8.604;2022-10-16T08:01:39;2.20;;;0.93;;
18048;SDS011;9149;47.002;8.604;2022-10-16T08:04:08;3.03;;;1.00;;
18048;SDS011;9149;47.002;8.604;2022-10-16T08:06:37;2.80;;;1.00;;
18048;SDS011;9149;47.002;8.604;2022-10-16T08:09:05;1.27;;;0.80;;
18048;SDS011;9149;47.002;8.604;2022-10-16T08:11:33;1.17;;;0.73;;
18048;SDS011;9149;47.002;8.604;2022-10-16T08:14:01;1.33;;;0.70;;
18048;SDS011;9149;47.002;8.604;2022-10-16T08:16:30;9.77;;;0.75;;
18048;SDS011;9149;47.002;8.604;2022-10-16T08:18:57;4.93;;;0.77;;
18048;SDS011;9149;47.002;8.604;2022-10-16T08:21:25;1.98;;;0.77;;
18048;SDS011;9149;47.002;8.604;2022-10-16T08:23:53;2.80;;;0.90;;
18048;SDS011;9149;47.002;8.604;2022-10-16T08:26:24;1.08;;;0.82;;
18048;SDS011;9149;47.002;8.604;2022-10-16T08:28:52;9.13;;;1.10;;
18048;SDS011;9149;47.002;8.604;2022-10-16T08:31:20;0.70;;;0.63;;
18048;SDS011;9149;47.002;8.604;2022-10-16T08:33:49;1.65;;;0.90;;
18048;SDS011;9149;47.002;8.604;2022-10-16T08:36:18;1.40;;;1.00;;
18048;SDS011;9149;47.002;8.604;2022-10-16T08:38:47;7.05;;;0.90;;
18048;SDS011;9149;47.002;8.604;2022-10-16T08:41:19;3.08;;;0.80;;
18048;SDS011;9149;47.002;8.604;2022-10-16T08:43:55;0.98;;;0.88;;
18048;SDS011;9149;47.002;8.604;2022-10-16T08:46:30;2.10;;;1.20;;
18048;SDS011;9149;47.002;8.604;2022-10-16T08:49:03;1.88;;;0.95;;
18048;SDS011;9149;47.002;8.604;2022-10-16T08:51:35;2.05;;;1.15;;
18048;SDS011;9149;47.002;8.604;2022-10-16T08:54:14;2.75;;;1.40;;
18048;SDS011;9149;47.002;8.604;2022-10-16T08:56:43;1.73;;;1.05;;
18048;SDS011;9149;47.002;8.604;2022-10-16T08:59:11;1.40;;;0.95;;
18048;SDS011;9149;47.002;8.604;2022-10-16T09:01:40;1.58;;;1.10;;
18048;SDS011;9149;47.002;8.604;2022-10-16T09:04:21;2.10;;;1.10;;
18048;SDS011;9149;47.002;8.604;2022-10-16T09:06:52;2.58;;;1.10;;
18048;SDS011;9149;47.002;8.604;2022-10-16T09:09:25;1.83;;;1.05;;
18048;SDS011;9149;47.002;8.604;2022-10-16T09:11:58;2.53;;;1.33;;
18048;SDS011;9149;47.002;8.604;2022-10-16T09:14:32;5.10;;;1.27;;
18048;SDS011;9149;47.002;8.604;2022-10-16T09:17:06;1.70;;;1.10;;
18048;SDS011;9149;47.002;8.604;2022-10-16T09:19:41;2.28;;;1.05;;
18048;SDS011;9149;47.002;8.604;2022-10-16T09:22:12;5.28;;;1.00;;
18048;SDS011;9149;47.002;8.604;2022-10-16T09:24:42;2.88;;;1.05;;
18048;SDS011;9149;47.002;8.604;2022-10-16T09:27:10;2.05;;;0.80;;
18048;SDS011;9149;47.002;8.604;2022-10-16T09:29:38;1.85;;;1.10;;
18048;SDS011;9149;47.002;8.604;2022-10-16T09:32:10;4.60;;;1.00;;
18048;SDS011;9149;47.002;8.604;2022-10-16T09:34:40;4.55;;;1.23;;
18048;SDS011;9149;47.002;8.604;2022-10-16T09:37:11;2.90;;;1.20;;
18048;SDS011;9149;47.002;8.604;2022-10-16T09:39:47;1.63;;;0.90;;
18048;SDS011;9149;47.002;8.604;2022-10-16T09:42:16;5.22;;;1.08;;
18048;SDS011;9149;47.002;8.604;2022-10-16T09:44:47;2.35;;;1.08;;
18048;SDS011;9149;47.002;8.604;2022-10-16T09:47:15;5.03;;;0.90;;
18048;SDS011;9149;47.002;8.604;2022-10-16T09:49:50;2.63;;;0.90;;
18048;SDS011;9149;47.002;8.604;2022-10-16T09:52:19;0.88;;;0.70;;
18048;SDS011;9149;47.002;8.604;2022-10-16T09:54:49;1.70;;;0.90;;
18048;SDS011;9149;47.002;8.604;2022-10-16T09:57:16;7.07;;;0.70;;
18048;SDS011;9149;47.002;8.604;2022-10-16T09:59:45;4.55;;;0.90;;
18048;SDS011;9149;47.002;8.604;2022-10-16T10:02:14;1.60;;;0.63;;
18048;SDS011;9149;47.002;8.604;2022-10-16T10:07:30;1.48;;;0.70;;
18048;SDS011;9149;47.002;8.604;2022-10-16T10:10:00;2.80;;;0.68;;
18048;SDS011;9149;47.002;8.604;2022-10-16T10:12:29;4.95;;;0.85;;
18048;SDS011;9149;47.002;8.604;2022-10-16T10:15:03;0.88;;;0.70;;
18048;SDS011;9149;47.002;8.604;2022-10-16T10:17:31;1.52;;;0.70;;
18048;SDS011;9149;47.002;8.604;2022-10-16T10:19:59;1.10;;;0.73;;
18048;SDS011;9149;47.002;8.604;2022-10-16T10:22:31;1.05;;;0.63;;
18048;SDS011;9149;47.002;8.604;2022-10-16T10:25:01;0.88;;;0.60;;
18048;SDS011;9149;47.002;8.604;2022-10-16T10:27:37;3.70;;;0.73;;
18048;SDS011;9149;47.002;8.604;2022-10-16T10:30:06;3.80;;;0.70;;
18048;SDS011;9149;47.002;8.604;2022-10-16T10:32:40;1.88;;;0.93;;
18048;SDS011;9149;47.002;8.604;2022-10-16T10:35:14;2.00;;;0.40;;
18048;SDS011;9149;47.002;8.604;2022-10-16T10:37:48;1.80;;;0.65;;
18048;SDS011;9149;47.002;8.604;2022-10-16T10:40:22;2.58;;;0.70;;
18048;SDS011;9149;47.002;8.604;2022-10-16T10:42:53;1.90;;;0.63;;
18048;SDS011;9149;47.002;8.604;2022-10-16T10:45:26;2.55;;;0.63;;
18048;SDS011;9149;47.002;8.604;2022-10-16T10:47:58;5.68;;;0.90;;
18048;SDS011;9149;47.002;8.604;2022-10-16T10:50:30;3.17;;;0.80;;
18048;SDS011;9149;47.002;8.604;2022-10-16T10:53:04;1.08;;;0.50;;
18048;SDS011;9149;47.002;8.604;2022-10-16T10:55:36;2.03;;;0.70;;
18048;SDS011;9149;47.002;8.604;2022-10-16T10:58:10;2.40;;;0.60;;
18048;SDS011;9149;47.002;8.604;2022-10-16T11:00:42;4.70;;;0.70;;
18048;SDS011;9149;47.002;8.604;2022-10-16T11:03:19;1.27;;;0.80;;
18048;SDS011;9149;47.002;8.604;2022-10-16T11:05:49;4.03;;;0.73;;
18048;SDS011;9149;47.002;8.604;2022-10-16T11:08:25;1.30;;;0.80;;
18048;SDS011;9149;47.002;8.604;2022-10-16T11:10:57;0.75;;;0.60;;
18048;SDS011;9149;47.002;8.604;2022-10-16T11:13:28;3.88;;;0.60;;
18048;SDS011;9149;47.002;8.604;2022-10-16T11:15:58;4.18;;;0.70;;
18048;SDS011;9149;47.002;8.604;2022-10-16T11:18:28;3.80;;;0.68;;
18048;SDS011;9149;47.002;8.604;2022-10-16T11:20:57;4.82;;;0.60;;
18048;SDS011;9149;47.002;8.604;2022-10-16T11:23:28;7.93;;;0.85;;
18048;SDS011;9149;47.002;8.604;2022-10-16T11:25:57;4.13;;;0.70;;
18048;SDS011;9149;47.002;8.604;2022-10-16T11:28:27;4.72;;;0.70;;
18048;SDS011;9149;47.002;8.604;2022-10-16T11:30:57;4.57;;;1.00;;
18048;SDS011;9149;47.002;8.604;2022-10-16T11:33:27;4.97;;;0.60;;
18048;SDS011;9149;47.002;8.604;2022-10-16T11:36:00;0.60;;;0.40;;
18048;SDS011;9149;47.002;8.604;2022-10-16T11:38:32;4.07;;;0.70;;
18048;SDS011;9149;47.002;8.604;2022-10-16T11:41:03;0.70;;;0.70;;
18048;SDS011;9149;47.002;8.604;2022-10-16T11:43:32;2.95;;;0.70;;
18048;SDS011;9149;47.002;8.604;2022-10-16T11:46:02;0.73;;;0.50;;
18048;SDS011;9149;47.002;8.604;2022-10-16T11:48:36;1.85;;;0.50;;
18048;SDS011;9149;47.002;8.604;2022-10-16T11:51:07;10.40;;;0.73;;
18048;SDS011;9149;47.002;8.604;2022-10-16T11:53:42;4.72;;;0.65;;
18048;SDS011;9149;47.002;8.604;2022-10-16T11:56:12;2.00;;;0.70;;
18048;SDS011;9149;47.002;8.604;2022-10-16T11:58:41;1.33;;;0.60;;
18048;SDS011;9149;47.002;8.604;2022-10-16T12:01:15;4.03;;;0.60;;
18048;SDS011;9149;47.002;8.604;2022-10-16T12:03:45;1.98;;;0.50;;
18048;SDS011;9149;47.002;8.604;2022-10-16T12:06:22;6.30;;;1.15;;
18048;SDS011;9149;47.002;8.604;2022-10-16T12:08:52;4.00;;;1.00;;
18048;SDS011;9149;47.002;8.604;2022-10-16T12:11:24;6.22;;;0.70;;
18048;SDS011;9149;47.002;8.604;2022-10-16T12:14:07;3.83;;;0.60;;
18048;SDS011;9149;47.002;8.604;2022-10-16T12:16:36;1.52;;;0.60;;
18048;SDS011;9149;47.002;8.604;2022-10-16T12:19:12;3.55;;;0.80;;
18048;SDS011;9149;47.002;8.604;2022-10-16T12:21:40;1.90;;;0.70;;
18048;SDS011;9149;47.002;8.604;2022-10-16T12:24:20;8.25;;;0.75;;
18048;SDS011;9149;47.002;8.604;2022-10-16T12:26:48;1.23;;;0.55;;
18048;SDS011;9149;47.002;8.604;2022-10-16T12:29:21;0.88;;;0.70;;
18048;SDS011;9149;47.002;8.604;2022-10-16T12:31:50;4.55;;;0.90;;
18048;SDS011;9149;47.002;8.604;2022-10-16T12:34:26;2.28;;;0.60;;
18048;SDS011;9149;47.002;8.604;2022-10-16T12:36:55;9.05;;;0.73;;
18048;SDS011;9149;47.002;8.604;2022-10-16T12:39:24;6.32;;;0.60;;
18048;SDS011;9149;47.002;8.604;2022-10-16T12:42:03;8.13;;;0.80;;
18048;SDS011;9149;47.002;8.604;2022-10-16T12:44:32;0.80;;;0.70;;
18048;SDS011;9149;47.002;8.604;2022-10-16T12:47:00;0.90;;;0.57;;
18048;SDS011;9149;47.002;8.604;2022-10-16T12:49:30;1.52;;;0.77;;
18048;SDS011;9149;47.002;8.604;2022-10-16T12:51:58;0.93;;;0.63;;
18048;SDS011;9149;47.002;8.604;2022-10-16T12:54:29;3.85;;;0.63;;
18048;SDS011;9149;47.002;8.604;2022-10-16T12:57:01;2.17;;;0.70;;
18048;SDS011;9149;47.002;8.604;2022-10-16T12:59:33;3.03;;;0.77;;
18048;SDS011;9149;47.002;8.604;2022-10-16T13:02:07;1.85;;;0.60;;
18048;SDS011;9149;47.002;8.604;2022-10-16T13:04:42;2.38;;;0.70;;
18048;SDS011;9149;47.002;8.604;2022-10-16T13:07:17;2.03;;;0.75;;
18048;SDS011;9149;47.002;8.604;2022-10-16T13:09:55;0.70;;;0.60;;
18048;SDS011;9149;47.002;8.604;2022-10-16T13:12:31;2.13;;;0.50;;
18048;SDS011;9149;47.002;8.604;2022-10-16T13:15:09;2.47;;;0.68;;
18048;SDS011;9149;47.002;8.604;2022-10-16T13:17:43;1.05;;;0.60;;
18048;SDS011;9149;47.002;8.604;2022-10-16T13:20:16;0.45;;;0.35;;
18048;SDS011;9149;47.002;8.604;2022-10-16T13:22:48;1.20;;;0.63;;
18048;SDS011;9149;47.002;8.604;2022-10-16T13:25:26;2.47;;;0.68;;
18048;SDS011;9149;47.002;8.604;2022-10-16T13:27:57;1.20;;;0.70;;
18048;SDS011;9149;47.002;8.604;2022-10-16T13:30:27;1.83;;;0.60;;
18048;SDS011;9149;47.002;8.604;2022-10-16T13:32:59;0.68;;;0.60;;
18048;SDS011;9149;47.002;8.604;2022-10-16T13:35:28;2.67;;;0.93;;
18048;SDS011;9149;47.002;8.604;2022-10-16T13:38:05;3.30;;;0.50;;
18048;SDS011;9149;47.002;8.604;2022-10-16T13:40:35;0.57;;;0.50;;
18048;SDS011;9149;47.002;8.604;2022-10-16T13:43:03;1.48;;;0.60;;
18048;SDS011;9149;47.002;8.604;2022-10-16T13:45:31;1.80;;;0.57;;
18048;SDS011;9149;47.002;8.604;2022-10-16T13:48:02;5.18;;;0.60;;
18048;SDS011;9149;47.002;8.604;2022-10-16T13:50:30;2.28;;;0.57;;
18048;SDS011;9149;47.002;8.604;2022-10-16T13:53:05;3.63;;;0.80;;
18048;SDS011;9149;47.002;8.604;2022-10-16T13:55:32;2.38;;;0.50;;
18048;SDS011;9149;47.002;8.604;2022-10-16T13:58:11;1.63;;;0.60;;
18048;SDS011;9149;47.002;8.604;2022-10-16T14:00:40;0.80;;;0.60;;
18048;SDS011;9149;47.002;8.604;2022-10-16T14:03:12;1.52;;;0.60;;
18048;SDS011;9149;47.002;8.604;2022-10-16T14:05:41;1.00;;;0.65;;
18048;SDS011;9149;47.002;8.604;2022-10-16T14:08:10;0.80;;;0.50;;
18048;SDS011;9149;47.002;8.604;2022-10-16T14:10:39;1.27;;;0.80;;
18048;SDS011;9149;47.002;8.604;2022-10-16T14:13:12;1.27;;;0.60;;
18048;SDS011;9149;47.002;8.604;2022-10-16T14:15:45;1.75;;;0.68;;
18048;SDS011;9149;47.002;8.604;2022-10-16T14:18:15;1.50;;;0.63;;
18048;SDS011;9149;47.002;8.604;2022-10-16T14:20:45;0.60;;;0.52;;
18048;SDS011;9149;47.002;8.604;2022-10-16T14:23:19;0.70;;;0.57;;
18048;SDS011;9149;47.002;8.604;2022-10-16T14:25:47;1.00;;;0.60;;
18048;SDS011;9149;47.002;8.604;2022-10-16T14:28:17;0.77;;;0.60;;
18048;SDS011;9149;47.002;8.604;2022-10-16T14:30:49;0.63;;;0.50;;
18048;SDS011;9149;47.002;8.604;2022-10-16T14:33:20;0.90;;;0.70;;
18048;SDS011;9149;47.002;8.604;2022-10-16T14:35:58;0.70;;;0.60;;
18048;SDS011;9149;47.002;8.604;2022-10-16T14:38:27;1.10;;;0.90;;
18048;SDS011;9149;47.002;8.604;2022-10-16T14:40:56;2.15;;;0.60;;
18048;SDS011;9149;47.002;8.604;2022-10-16T14:43:29;4.75;;;0.73;;
18048;SDS011;9149;47.002;8.604;2022-10-16T14:45:58;1.13;;;0.60;;
18048;SDS011;9149;47.002;8.604;2022-10-16T14:48:26;1.05;;;0.80;;
18048;SDS011;9149;47.002;8.604;2022-10-16T14:50:54;6.22;;;0.75;;
18048;SDS011;9149;47.002;8.604;2022-10-16T14:53:22;1.05;;;0.77;;
18048;SDS011;9149;47.002;8.604;2022-10-16T14:55:50;5.30;;;0.98;;
18048;SDS011;9149;47.002;8.604;2022-10-16T14:58:19;1.05;;;0.70;;
18048;SDS011;9149;47.002;8.604;2022-10-16T15:00:49;1.95;;;0.88;;
18048;SDS011;9149;47.002;8.604;2022-10-16T15:03:17;1.60;;;0.90;;
18048;SDS011;9149;47.002;8.604;2022-10-16T15:05:45;2.38;;;0.90;;
18048;SDS011;9149;47.002;8.604;2022-10-16T15:08:12;2.40;;;1.00;;
18048;SDS011;9149;47.002;8.604;2022-10-16T15:10:41;1.55;;;1.00;;
18048;SDS011;9149;47.002;8.604;2022-10-16T15:13:11;6.55;;;0.90;;
18048;SDS011;9149;47.002;8.604;2022-10-16T15:15:41;1.90;;;0.65;;
18048;SDS011;9149;47.002;8.604;2022-10-16T15:18:11;1.17;;;0.65;;
18048;SDS011;9149;47.002;8.604;2022-10-16T15:20:40;1.25;;;0.70;;
18048;SDS011;9149;47.002;8.604;2022-10-16T15:23:10;1.55;;;0.98;;